Hauptseite
METAR-TAF:

METAR-TAF

Flughäfen :

Flughafen Sylt

Westerland, Deutschland

Breite: 54-55N, Länge: 008-21E, Höhe: 16 m

Beobachtung

Neuester Wetterbericht von vor 32 Minuten, um 18:50 UTC
Wind 19 kt aus Süd/Südwest
Temperatur 19°C
Luftfeuchtigkeit 78%
Luftdruck 1011 hPa
Sichtweite 10 km oder mehr
keine Wolken unter 1500 m und keine Kumulonimbus oder Gewitterwolken

METAR: EDXW 191850Z 21019KT CAVOK 19/15 Q1011

Zeit: 21:22 (19:22 UTC)

Prognose

Neuester Wetterbericht von vor 2 Stunden und 22 Minuten, um 17:00 UTC
Gültige Prognose vom 19 um 18 UTC bis 19 um 21 UTC
Wind 15 kt aus Südwest, Böen bis zu 25 kt
Sichtweite 10 km oder mehr
keine Wolken unter 1500 m und keine Kumulonimbus oder Gewitterwolken
Zeitweise
vom 19 um 18 UTC bis 19 um 21 UTC
Wind 20 kt aus Südwest, Böen bis zu 35 kt

TAF: EDXW 191700Z 1918/1921 22015G25KT CAVOK TEMPO 1918/1921 22020G35KT

Wetterbeobachtungen und Prognosen von mehr als 4000 Flughäfen (METAR und TAF Bericht).

Die verfügbaren Stationen werden durch gelbe und rote Markierungen auf der Karte dargestellt.

Führen Sie die Maus auf sie, um den Namen der Station zu sehen.

Darauf klicken, um die Beobachtung von Wetterbeobachtungen und Prognosen zu sehen.

Um die Karte zu ändern : klicken Sie auf den grünen Tasten mit einem schwarzen Kreuz Zum Vergrößern, auf den grünen Button mit einem Gedankenstrich zu verkleinern, oder auf die grünen Pfeile für benachbarte Karten.


METAR-TAF: